createdAt,value
2023-04-16T00:02:19.519Z,7.00
2023-04-16T00:04:47.757Z,7.00
2023-04-16T00:07:15.892Z,10.00
2023-04-16T00:09:43.978Z,9.00
2023-04-16T00:12:13.573Z,6.60
2023-04-16T00:14:42.823Z,9.00
2023-04-16T00:17:11.284Z,4.00
2023-04-16T00:19:39.840Z,6.80
2023-04-16T00:22:07.930Z,9.00
2023-04-16T00:24:36.228Z,9.40
2023-04-16T00:27:04.369Z,12.00
2023-04-16T00:29:34.997Z,11.20
2023-04-16T00:32:03.609Z,3.00
2023-04-16T00:34:31.761Z,12.20
2023-04-16T00:36:59.933Z,10.40
2023-04-16T00:39:28.280Z,10.00
2023-04-16T00:41:56.616Z,10.80
2023-04-16T00:44:24.818Z,12.00
2023-04-16T00:46:57.041Z,12.00
2023-04-16T00:49:25.521Z,12.00
2023-04-16T00:51:53.658Z,18.00
2023-04-16T00:54:21.960Z,16.80
2023-04-16T00:56:52.325Z,16.00
2023-04-16T00:59:20.886Z,12.20
2023-04-16T01:01:49.149Z,18.80
2023-04-16T01:04:18.845Z,18.00
2023-04-16T01:06:47.136Z,12.20
2023-04-16T01:09:15.800Z,13.40
2023-04-16T01:11:44.016Z,13.80
2023-04-16T01:14:12.241Z,12.60
2023-04-16T01:16:40.365Z,12.80
2023-04-16T01:19:08.605Z,12.00
2023-04-16T01:21:38.398Z,9.20
2023-04-16T01:24:06.733Z,9.60
2023-04-16T01:26:34.895Z,10.00
2023-04-16T01:29:04.204Z,12.20
2023-04-16T01:31:32.455Z,6.80
2023-04-16T01:34:20.827Z,4.60
2023-04-16T01:36:50.381Z,8.60
2023-04-16T01:39:19.671Z,9.00
2023-04-16T01:41:47.917Z,6.40
2023-04-16T01:44:15.993Z,9.40
2023-04-16T01:46:44.989Z,9.40
2023-04-16T01:49:13.200Z,10.00
2023-04-16T01:51:42.180Z,10.00
2023-04-16T01:54:11.814Z,7.40
2023-04-16T01:56:41.127Z,9.20
2023-04-16T01:59:10.076Z,9.60
2023-04-16T02:01:42.649Z,7.00
2023-04-16T02:04:11.273Z,9.40
2023-04-16T02:06:40.253Z,7.00
2023-04-16T02:09:08.612Z,9.60
2023-04-16T02:11:40.392Z,6.80
2023-04-16T02:14:09.826Z,9.20
2023-04-16T02:16:38.188Z,10.40
2023-04-16T02:19:14.945Z,8.20
2023-04-16T02:21:43.991Z,2.20
2023-04-16T02:24:12.241Z,7.80
2023-04-16T02:26:41.851Z,7.80
2023-04-16T02:29:16.693Z,10.00
2023-04-16T02:31:51.286Z,5.60
2023-04-16T02:34:20.102Z,7.00
2023-04-16T02:36:49.201Z,7.00
2023-04-16T02:39:17.874Z,6.00
2023-04-16T02:41:47.437Z,9.00
2023-04-16T02:44:15.821Z,9.60
2023-04-16T02:46:44.169Z,7.00
2023-04-16T02:49:12.392Z,6.20
2023-04-16T02:51:40.615Z,6.00
2023-04-16T02:54:08.842Z,10.80
2023-04-16T02:56:36.980Z,7.00
2023-04-16T02:59:06.875Z,6.00
2023-04-16T03:01:35.389Z,9.00
2023-04-16T03:04:03.823Z,7.80
2023-04-16T03:06:31.974Z,8.20
2023-04-16T03:09:00.161Z,9.00
2023-04-16T03:11:28.298Z,10.00
2023-04-16T03:13:57.382Z,9.00
2023-04-16T03:16:27.166Z,9.60
2023-04-16T03:18:55.478Z,11.60
2023-04-16T03:21:23.684Z,9.60
2023-04-16T03:23:53.424Z,9.80
2023-04-16T03:26:23.465Z,10.40
2023-04-16T03:28:52.197Z,9.80
2023-04-16T03:31:20.338Z,10.00
2023-04-16T03:33:49.892Z,5.40
2023-04-16T03:36:18.039Z,12.00
2023-04-16T03:38:46.341Z,10.00
2023-04-16T03:41:15.151Z,9.60
2023-04-16T03:43:43.422Z,10.40
2023-04-16T03:46:12.064Z,11.60
2023-04-16T03:48:40.463Z,12.40
2023-04-16T03:51:10.626Z,10.50
2023-04-16T03:53:40.549Z,7.00
2023-04-16T03:56:08.801Z,7.00
2023-04-16T03:58:36.888Z,10.00
2023-04-16T04:01:05.047Z,11.25
2023-04-16T04:03:33.252Z,10.50
2023-04-16T04:06:01.658Z,5.40
2023-04-16T04:08:33.129Z,12.75
2023-04-16T04:11:01.397Z,11.00
2023-04-16T04:13:29.729Z,13.00
2023-04-16T04:15:59.349Z,13.00
2023-04-16T04:18:28.620Z,10.00
2023-04-16T04:20:57.359Z,10.00
2023-04-16T04:23:29.636Z,11.00
2023-04-16T04:25:59.642Z,13.00
2023-04-16T04:28:27.923Z,13.00
2023-04-16T04:30:56.258Z,10.40
2023-04-16T04:33:24.450Z,12.40
2023-04-16T04:35:52.860Z,13.00
2023-04-16T04:38:22.449Z,11.20
2023-04-16T04:40:51.664Z,11.40
2023-04-16T04:43:22.814Z,11.40
2023-04-16T04:45:51.836Z,11.00
2023-04-16T04:48:20.046Z,13.00
2023-04-16T04:50:48.247Z,10.60
2023-04-16T04:53:16.517Z,8.80
2023-04-16T04:55:44.859Z,10.00
2023-04-16T04:58:13.147Z,10.20
2023-04-16T05:00:44.850Z,8.00
2023-04-16T05:03:13.922Z,8.00
2023-04-16T05:05:42.769Z,7.50
2023-04-16T05:08:11.241Z,7.25
2023-04-16T05:10:39.419Z,7.00
2023-04-16T05:13:08.819Z,6.00
2023-04-16T05:15:37.161Z,5.00
2023-04-16T05:18:06.695Z,2.00
2023-04-16T05:20:34.974Z,4.50
2023-04-16T05:23:03.288Z,4.75
2023-04-16T05:25:31.413Z,6.25
2023-04-16T05:27:59.534Z,5.75
2023-04-16T05:30:27.813Z,5.00
2023-04-16T05:32:56.884Z,4.50
2023-04-16T05:35:26.845Z,5.00
2023-04-16T05:37:55.033Z,4.75
2023-04-16T05:40:23.328Z,6.00
2023-04-16T05:42:51.601Z,5.25
2023-04-16T05:45:19.774Z,3.00
2023-04-16T05:47:47.995Z,3.00
2023-04-16T05:50:16.338Z,5.25
2023-04-16T05:52:45.879Z,6.00
2023-04-16T05:55:13.977Z,5.00
2023-04-16T05:57:42.255Z,5.25
2023-04-16T06:00:10.689Z,3.25
2023-04-16T06:02:42.041Z,5.00
2023-04-16T06:05:10.736Z,4.00
2023-04-16T06:07:38.901Z,3.75
2023-04-16T06:10:09.562Z,4.00
2023-04-16T06:12:38.030Z,3.75
2023-04-16T06:15:06.724Z,3.00
2023-04-16T06:17:35.111Z,3.00
2023-04-16T06:20:03.571Z,2.50
2023-04-16T06:22:33.488Z,3.00
2023-04-16T06:25:01.713Z,2.50
2023-04-16T06:27:33.241Z,2.25
2023-04-16T06:30:01.445Z,4.00
2023-04-16T06:32:30.504Z,6.00
2023-04-16T06:34:59.178Z,7.00
2023-04-16T06:37:27.636Z,7.75
2023-04-16T06:39:55.902Z,6.00
2023-04-16T06:42:24.483Z,6.25
2023-04-16T06:44:54.146Z,6.00
2023-04-16T06:47:22.478Z,3.00
2023-04-16T06:49:50.701Z,1.00
2023-04-16T06:52:22.543Z,2.25
2023-04-16T06:54:50.708Z,4.00
2023-04-16T06:57:18.924Z,0.50
2023-04-16T06:59:47.154Z,4.00
2023-04-16T07:02:17.026Z,4.00
2023-04-16T07:04:45.397Z,3.75
2023-04-16T07:07:13.588Z,1.50
2023-04-16T07:09:41.882Z,3.75
2023-04-16T07:12:11.510Z,3.25
2023-04-16T07:14:39.643Z,2.00
2023-04-16T07:17:07.699Z,3.00
2023-04-16T07:19:37.550Z,4.00
2023-04-16T07:22:06.362Z,3.00
2023-04-16T07:24:34.526Z,3.75
2023-04-16T07:27:02.800Z,3.25
2023-04-16T07:29:30.962Z,3.00
2023-04-16T07:31:59.468Z,5.00
2023-04-16T07:34:27.749Z,2.25
2023-04-16T07:36:57.391Z,3.75
2023-04-16T07:39:25.757Z,4.00
2023-04-16T07:41:55.085Z,2.00
2023-04-16T07:44:23.356Z,2.00
2023-04-16T07:46:51.661Z,3.75
2023-04-16T07:49:19.922Z,3.00
2023-04-16T07:52:05.968Z,1.25
2023-04-16T07:54:35.667Z,2.75
2023-04-16T07:57:03.970Z,3.50
2023-04-16T07:59:32.157Z,2.75
2023-04-16T08:02:00.575Z,3.25
2023-04-16T08:04:28.991Z,2.00
2023-04-16T08:06:57.438Z,4.00
2023-04-16T08:09:28.811Z,3.25
2023-04-16T08:11:58.534Z,3.25
2023-04-16T08:14:26.960Z,2.75
2023-04-16T08:16:55.479Z,0.00
2023-04-16T08:19:23.683Z,3.00
2023-04-16T08:21:51.967Z,4.25
2023-04-16T08:24:20.456Z,3.00
2023-04-16T08:26:49.000Z,4.25
2023-04-16T08:29:19.397Z,7.00
2023-04-16T08:31:48.117Z,7.25
2023-04-16T08:35:05.303Z,8.00
2023-04-16T08:37:33.670Z,8.00
2023-04-16T08:40:02.465Z,5.00
2023-04-16T08:42:33.400Z,8.00
2023-04-16T08:45:07.769Z,7.00
2023-04-16T08:47:37.257Z,7.50
2023-04-16T08:50:06.173Z,7.00
2023-04-16T08:52:35.710Z,8.00
2023-04-16T08:55:06.548Z,4.50
2023-04-16T08:57:40.085Z,3.00
2023-04-16T09:00:11.048Z,5.50
2023-04-16T09:02:39.873Z,5.00
2023-04-16T09:05:09.262Z,5.25
2023-04-16T09:07:37.773Z,5.00
2023-04-16T09:10:07.271Z,4.00
2023-04-16T09:12:36.832Z,4.00
2023-04-16T09:15:06.672Z,4.75
2023-04-16T09:17:37.266Z,4.50
2023-04-16T09:20:08.922Z,4.00
2023-04-16T09:22:37.713Z,3.00
2023-04-16T09:25:06.582Z,4.00
2023-04-16T09:27:35.452Z,3.50
2023-04-16T09:30:05.028Z,3.00
2023-04-16T09:32:33.985Z,2.00
2023-04-16T09:35:03.894Z,4.00
2023-04-16T09:37:33.332Z,4.00
2023-04-16T09:40:02.264Z,4.00
2023-04-16T09:42:33.619Z,4.00
2023-04-16T09:45:04.162Z,1.00
2023-04-16T09:47:45.051Z,3.00
2023-04-16T09:50:18.611Z,3.00
2023-04-16T09:52:49.308Z,3.75
2023-04-16T09:55:19.503Z,3.75
2023-04-16T09:57:48.876Z,7.00
2023-04-16T10:00:19.804Z,4.00
2023-04-16T10:02:50.647Z,2.25
2023-04-16T10:05:21.351Z,2.00
2023-04-16T10:07:49.972Z,4.00
2023-04-16T10:10:18.562Z,3.50
2023-04-16T10:12:47.996Z,4.25
2023-04-16T10:15:16.316Z,4.00
2023-04-16T10:17:44.868Z,4.00
2023-04-16T10:20:13.965Z,4.00
2023-04-16T10:22:47.667Z,3.00
2023-04-16T10:25:18.071Z,4.00
2023-04-16T10:27:46.511Z,3.50
2023-04-16T10:30:16.840Z,4.00
2023-04-16T10:32:46.610Z,4.00
2023-04-16T10:35:16.895Z,6.00
2023-04-16T10:37:47.625Z,4.00
2023-04-16T10:40:23.366Z,3.25
2023-04-16T10:42:58.447Z,4.00
2023-04-16T10:45:33.765Z,4.00
2023-04-16T10:48:05.612Z,4.00
2023-04-16T10:50:37.303Z,5.00
2023-04-16T10:53:24.825Z,1.00
2023-04-16T10:55:59.783Z,4.00
2023-04-16T10:58:31.411Z,3.75
2023-04-16T11:01:01.037Z,5.25
2023-04-16T11:03:32.019Z,4.50
2023-04-16T11:06:12.148Z,4.50
2023-04-16T11:08:53.954Z,5.00
2023-04-16T11:11:31.419Z,6.50
2023-04-16T11:13:59.875Z,5.00
2023-04-16T11:16:28.549Z,5.00
2023-04-16T11:18:57.928Z,6.50
2023-04-16T11:21:28.798Z,7.00
2023-04-16T11:23:58.993Z,5.00
2023-04-16T11:26:27.896Z,5.00
2023-04-16T11:28:56.828Z,5.00
2023-04-16T11:31:27.393Z,6.25
2023-04-16T11:34:00.411Z,6.25
2023-04-16T11:36:45.067Z,6.00
2023-04-16T11:39:17.109Z,5.00
2023-04-16T11:41:47.964Z,5.50
2023-04-16T11:44:29.509Z,6.50
2023-04-16T11:46:59.556Z,7.25
2023-04-16T11:49:33.000Z,3.25
2023-04-16T11:52:07.725Z,5.00
2023-04-16T11:54:42.964Z,5.50
2023-04-16T11:57:14.398Z,6.25
2023-04-16T12:00:01.426Z,6.00
2023-04-16T12:02:47.312Z,6.50
2023-04-16T12:08:35.494Z,7.75
2023-04-16T12:11:06.913Z,5.00
2023-04-16T12:13:41.093Z,8.00
2023-04-16T12:16:21.390Z,7.25
2023-04-16T12:19:02.547Z,5.00
2023-04-16T12:21:39.522Z,7.75
2023-04-16T12:24:10.296Z,6.00
2023-04-16T12:26:43.125Z,5.50
2023-04-16T12:29:19.309Z,9.00
2023-04-16T12:31:49.816Z,7.75
2023-04-16T12:34:18.999Z,7.25
2023-04-16T12:36:48.194Z,4.00
2023-04-16T12:39:17.374Z,3.75
2023-04-16T12:41:47.291Z,5.00
2023-04-16T12:44:18.057Z,5.00
2023-04-16T12:46:46.507Z,3.00
2023-04-16T12:49:15.041Z,3.00
2023-04-16T12:51:43.289Z,6.50
2023-04-16T12:54:11.665Z,6.00
2023-04-16T12:56:40.030Z,6.00
2023-04-16T12:59:30.384Z,4.25
2023-04-16T13:02:03.524Z,6.00
2023-04-16T13:04:32.078Z,6.00
2023-04-16T13:07:04.727Z,4.25
2023-04-16T13:09:39.712Z,8.50
2023-04-16T13:12:08.831Z,8.00
2023-04-16T13:14:38.820Z,8.25
2023-04-16T13:17:07.094Z,6.50
2023-04-16T13:19:35.624Z,6.50
2023-04-16T13:22:03.860Z,7.75
2023-04-16T13:24:32.147Z,8.50
2023-04-16T13:27:00.704Z,8.00
2023-04-16T13:29:30.056Z,8.50
2023-04-16T13:32:00.047Z,6.00
2023-04-16T13:34:28.479Z,7.50
2023-04-16T13:36:56.866Z,6.00
2023-04-16T13:39:25.124Z,8.00
2023-04-16T13:41:53.535Z,7.00
2023-04-16T13:44:21.698Z,6.00
2023-04-16T13:46:49.932Z,8.00
2023-04-16T13:49:19.658Z,5.50
2023-04-16T13:51:48.082Z,9.00
2023-04-16T13:54:16.266Z,9.00
2023-04-16T13:56:44.503Z,8.00
2023-04-16T13:59:12.988Z,7.75
2023-04-16T14:01:41.474Z,9.00
2023-04-16T14:04:09.789Z,10.00
2023-04-16T14:06:39.732Z,10.00
2023-04-16T14:09:09.701Z,8.50
2023-04-16T14:11:38.355Z,10.50
2023-04-16T14:14:06.737Z,10.00
2023-04-16T14:16:35.297Z,10.75
2023-04-16T14:19:03.572Z,2.00
2023-04-16T14:21:32.029Z,9.75
2023-04-16T14:24:01.740Z,7.50
2023-04-16T14:26:30.305Z,3.75
2023-04-16T14:28:58.738Z,8.00
2023-04-16T14:31:27.427Z,9.00
2023-04-16T14:33:56.290Z,9.75
2023-04-16T14:36:24.682Z,11.00
2023-04-16T14:38:52.896Z,9.75
2023-04-16T14:41:22.600Z,9.50
2023-04-16T14:43:51.188Z,5.00
2023-04-16T14:46:19.662Z,8.50
2023-04-16T14:48:48.076Z,9.00
2023-04-16T14:51:16.494Z,8.25
2023-04-16T14:53:45.191Z,10.75
2023-04-16T14:56:13.895Z,11.50
2023-04-16T14:58:43.689Z,11.25
2023-04-16T15:01:13.883Z,9.50
2023-04-16T15:03:43.338Z,10.75
2023-04-16T15:06:11.767Z,10.00
2023-04-16T15:08:40.058Z,8.25
2023-04-16T15:11:08.431Z,8.00
2023-04-16T15:13:36.838Z,4.00
2023-04-16T15:16:06.767Z,8.50
2023-04-16T15:18:35.050Z,7.00
2023-04-16T15:21:03.402Z,6.75
2023-04-16T15:23:31.750Z,8.00
2023-04-16T15:26:00.137Z,9.00
2023-04-16T15:28:28.841Z,9.00
2023-04-16T15:30:58.024Z,8.75
2023-04-16T15:33:30.740Z,9.00
2023-04-16T15:35:59.157Z,8.75
2023-04-16T15:38:29.936Z,9.50
2023-04-16T15:40:59.672Z,8.75
2023-04-16T15:43:29.094Z,8.25
2023-04-16T15:45:57.525Z,8.25
2023-04-16T15:48:25.825Z,7.50
2023-04-16T15:50:55.688Z,7.00
2023-04-16T15:53:23.963Z,8.75
2023-04-16T15:55:53.823Z,9.00
2023-04-16T15:58:22.536Z,10.75
2023-04-16T16:00:51.058Z,9.00
2023-04-16T16:03:20.078Z,9.75
2023-04-16T16:05:49.229Z,9.25
2023-04-16T16:08:18.945Z,14.25
2023-04-16T16:10:47.158Z,10.25
2023-04-16T16:13:18.291Z,9.00
2023-04-16T16:15:46.574Z,9.00
2023-04-16T16:18:14.809Z,10.75
2023-04-16T16:20:42.954Z,9.00
2023-04-16T16:23:11.651Z,12.25
2023-04-16T16:25:42.266Z,14.00
2023-04-16T16:28:10.382Z,14.50
2023-04-16T16:30:38.528Z,19.25
2023-04-16T16:33:06.731Z,21.25
2023-04-16T16:35:34.971Z,18.25
2023-04-16T16:38:03.177Z,14.50
2023-04-16T16:40:31.531Z,13.00
2023-04-16T16:43:04.686Z,13.00
2023-04-16T16:45:33.225Z,14.00
2023-04-16T16:48:03.613Z,13.00
2023-04-16T16:50:32.488Z,7.50
2023-04-16T16:53:00.689Z,17.75
2023-04-16T16:55:29.251Z,16.75
2023-04-16T16:57:57.440Z,18.00
2023-04-16T17:00:27.641Z,26.80
2023-04-16T17:02:56.101Z,20.00
2023-04-16T17:05:24.958Z,27.00
2023-04-16T17:07:53.277Z,24.20
2023-04-16T17:10:40.099Z,23.00
2023-04-16T17:13:08.318Z,15.50
2023-04-16T17:15:56.396Z,26.80
2023-04-16T17:18:24.672Z,24.20
2023-04-16T17:20:53.079Z,19.20
2023-04-16T17:23:21.312Z,22.80
2023-04-16T17:25:49.473Z,19.75
2023-04-16T17:28:17.738Z,21.00
2023-04-16T17:30:46.289Z,15.00
2023-04-16T17:33:17.291Z,19.50
2023-04-16T17:35:45.513Z,17.50
2023-04-16T17:38:13.636Z,14.75
2023-04-16T17:40:41.971Z,21.00
2023-04-16T17:43:10.236Z,28.20
2023-04-16T17:45:38.451Z,25.40
2023-04-16T17:48:06.935Z,22.60
2023-04-16T17:50:38.898Z,23.20
2023-04-16T17:53:07.881Z,28.00
2023-04-16T17:55:36.048Z,24.60
2023-04-16T17:58:04.928Z,20.40
2023-04-16T18:00:33.541Z,17.20
2023-04-16T18:03:02.239Z,24.20
2023-04-16T18:05:31.593Z,17.80
2023-04-16T18:08:01.298Z,20.60
2023-04-16T18:10:31.774Z,15.40
2023-04-16T18:13:00.519Z,15.40
2023-04-16T18:15:47.608Z,18.40
2023-04-16T18:18:15.896Z,22.20
2023-04-16T18:20:43.981Z,30.00
2023-04-16T18:23:13.636Z,28.00
2023-04-16T18:25:41.843Z,24.20
2023-04-16T18:28:10.017Z,20.40
2023-04-16T18:30:40.478Z,22.40
2023-04-16T18:33:30.662Z,23.00
2023-04-16T18:35:57.308Z,24.40
2023-04-16T18:38:27.001Z,19.80
2023-04-16T18:40:55.520Z,19.20
2023-04-16T18:43:24.014Z,19.20
2023-04-16T18:45:52.324Z,20.00
2023-04-16T18:48:20.485Z,20.00
2023-04-16T18:50:48.701Z,23.00
2023-04-16T18:53:16.852Z,21.60
2023-04-16T18:55:46.619Z,18.80
2023-04-16T18:58:14.838Z,20.00
2023-04-16T19:00:43.108Z,20.20
2023-04-16T19:03:11.486Z,20.20
2023-04-16T19:05:39.752Z,22.20
2023-04-16T19:08:25.488Z,18.60
2023-04-16T19:10:55.454Z,14.40
2023-04-16T19:13:23.815Z,21.20
2023-04-16T19:15:52.063Z,30.60
2023-04-16T19:18:37.843Z,25.00
2023-04-16T19:21:07.328Z,22.20
2023-04-16T19:23:35.867Z,22.20
2023-04-16T19:26:05.648Z,18.60
2023-04-16T19:28:33.903Z,18.80
2023-04-16T19:31:02.149Z,16.60
2023-04-16T19:33:47.708Z,14.40
2023-04-16T19:36:15.929Z,14.50
2023-04-16T19:38:44.123Z,14.80
2023-04-16T19:41:13.767Z,15.00
2023-04-16T19:43:41.971Z,14.25
2023-04-16T19:46:10.218Z,14.50
2023-04-16T19:48:38.407Z,13.00
2023-04-16T19:51:06.735Z,10.50
2023-04-16T19:53:35.239Z,16.50
2023-04-16T19:56:03.494Z,17.00
2023-04-16T19:58:33.148Z,12.50
2023-04-16T20:01:01.565Z,17.00
2023-04-16T20:03:29.786Z,16.50
2023-04-16T20:05:58.153Z,15.75
2023-04-16T20:08:26.374Z,14.25
2023-04-16T20:10:54.534Z,15.75
2023-04-16T20:13:22.688Z,14.00
2023-04-16T20:15:54.516Z,15.50
2023-04-16T20:18:23.276Z,14.00
2023-04-16T20:20:51.393Z,10.50
2023-04-16T20:23:19.574Z,14.25
2023-04-16T20:25:47.776Z,10.75
2023-04-16T20:28:16.456Z,7.00
2023-04-16T20:30:44.842Z,13.00
2023-04-16T20:33:14.510Z,14.25
2023-04-16T20:35:42.806Z,11.00
2023-04-16T20:38:11.109Z,25.80
2023-04-16T20:40:39.251Z,14.25
2023-04-16T20:43:10.424Z,11.00
2023-04-16T20:45:41.101Z,14.00
2023-04-16T20:48:09.717Z,12.00
2023-04-16T20:50:39.350Z,15.00
2023-04-16T20:53:07.522Z,15.00
2023-04-16T20:55:35.682Z,11.25
2023-04-16T20:58:03.894Z,13.40
2023-04-16T21:00:32.049Z,17.25
2023-04-16T21:03:00.383Z,14.75
2023-04-16T21:05:30.057Z,12.80
2023-04-16T21:07:59.637Z,14.20
2023-04-16T21:10:27.868Z,13.00
2023-04-16T21:12:56.126Z,13.50
2023-04-16T21:15:24.270Z,13.80
2023-04-16T21:17:52.602Z,15.20
2023-04-16T21:20:20.811Z,13.00
2023-04-16T21:22:50.526Z,16.00
2023-04-16T21:25:20.550Z,14.80
2023-04-16T21:27:48.784Z,12.40
2023-04-16T21:30:17.298Z,11.60
2023-04-16T21:32:45.934Z,14.80
2023-04-16T21:35:14.290Z,14.80
2023-04-16T21:37:42.521Z,17.00
2023-04-16T21:40:11.034Z,17.60
2023-04-16T21:42:42.448Z,17.40
2023-04-16T21:45:11.160Z,18.60
2023-04-16T21:47:39.315Z,22.00
2023-04-16T21:50:08.162Z,22.60
2023-04-16T21:52:40.528Z,21.40
2023-04-16T21:55:10.388Z,20.60
2023-04-16T21:57:38.622Z,20.20
2023-04-16T22:00:13.827Z,18.20
2023-04-16T22:02:43.238Z,18.20
2023-04-16T22:05:11.961Z,21.40
2023-04-16T22:07:40.087Z,19.20
2023-04-16T22:10:09.270Z,18.00
2023-04-16T22:12:40.030Z,20.80
2023-04-16T22:15:10.612Z,18.00
2023-04-16T22:17:38.861Z,19.20
2023-04-16T22:20:09.387Z,19.20
2023-04-16T22:22:37.763Z,15.00
2023-04-16T22:25:06.410Z,18.00
2023-04-16T22:27:34.803Z,16.80
2023-04-16T22:30:04.227Z,17.60
2023-04-16T22:32:36.505Z,13.60
2023-04-16T22:35:04.722Z,18.20
2023-04-16T22:37:33.593Z,16.80
2023-04-16T22:40:01.940Z,10.80
2023-04-16T22:42:31.763Z,17.00
2023-04-16T22:45:00.173Z,19.00
2023-04-16T22:47:28.530Z,18.00
2023-04-16T22:49:58.099Z,17.00
2023-04-16T22:52:26.239Z,17.25
2023-04-16T22:54:54.392Z,15.00
2023-04-16T22:57:25.013Z,16.20
2023-04-16T22:59:53.417Z,19.40
2023-04-16T23:02:22.154Z,12.80
2023-04-16T23:04:50.538Z,16.00
2023-04-16T23:07:20.268Z,14.80
2023-04-16T23:09:48.569Z,15.00
2023-04-16T23:12:16.720Z,12.40
2023-04-16T23:14:46.156Z,15.80
2023-04-16T23:17:14.859Z,16.00
2023-04-16T23:19:42.964Z,15.40
2023-04-16T23:22:11.094Z,9.00
2023-04-16T23:24:40.593Z,16.00
2023-04-16T23:27:08.778Z,17.00
2023-04-16T23:29:37.041Z,14.00
2023-04-16T23:32:05.366Z,15.40
2023-04-16T23:34:33.642Z,11.00
2023-04-16T23:37:02.433Z,16.00
2023-04-16T23:39:30.542Z,15.20
2023-04-16T23:42:00.117Z,15.75
2023-04-16T23:44:28.236Z,14.00
2023-04-16T23:46:56.499Z,16.25
2023-04-16T23:49:24.690Z,16.00
2023-04-16T23:51:53.017Z,17.40
2023-04-16T23:54:21.608Z,17.20
2023-04-16T23:56:49.821Z,17.20
2023-04-16T23:59:19.606Z,14.80
